createdAt,value
2018-01-12T00:00:05.811Z,21.08
2018-01-12T00:00:33.856Z,21.1
2018-01-12T00:01:01.977Z,21.13
2018-01-12T00:01:30.078Z,21.15
2018-01-12T00:01:58.115Z,21.15
2018-01-12T00:02:26.283Z,21.17
2018-01-12T00:02:54.215Z,21.17
2018-01-12T00:03:22.218Z,21.15
2018-01-12T00:03:50.330Z,21.15
2018-01-12T00:04:18.472Z,21.2
2018-01-12T00:04:46.644Z,21.08
2018-01-12T00:05:14.732Z,21.14
2018-01-12T00:05:42.623Z,21.11
2018-01-12T00:06:10.674Z,21.11
2018-01-12T00:06:38.748Z,21.15
2018-01-12T00:07:06.863Z,21.15
2018-01-12T00:07:34.868Z,21.15
2018-01-12T00:08:02.908Z,21.13
2018-01-12T00:08:30.935Z,21.14
2018-01-12T00:08:58.861Z,21.17
2018-01-12T00:09:26.994Z,21.11
2018-01-12T00:09:55.051Z,21.19
2018-01-12T00:10:22.987Z,21.19
2018-01-12T00:10:51.130Z,21.2
2018-01-12T00:11:19.273Z,21.26
2018-01-12T00:11:47.398Z,21.19
2018-01-12T00:12:15.415Z,21.19
2018-01-12T00:12:43.354Z,21.2
2018-01-12T00:13:11.439Z,21.13
2018-01-12T00:13:39.471Z,21.11
2018-01-12T00:14:07.497Z,21.14
2018-01-12T00:14:35.425Z,21.11
2018-01-12T00:15:03.538Z,21.13
2018-01-12T00:15:31.688Z,21.11
2018-01-12T00:15:59.784Z,21.15
2018-01-12T00:16:27.843Z,21.23
2018-01-12T00:16:55.969Z,21.11
2018-01-12T00:17:24.219Z,21.11
2018-01-12T00:17:52.358Z,21.17
2018-01-12T00:18:20.383Z,21.17
2018-01-12T00:18:48.419Z,21.2
2018-01-12T00:19:16.288Z,21.15
2018-01-12T00:19:44.430Z,21.2
2018-01-12T00:20:12.559Z,21.22
2018-01-12T00:20:40.716Z,21.19
2018-01-12T00:21:08.872Z,21.22
2018-01-12T00:21:36.870Z,21.13
2018-01-12T00:22:05.031Z,21.15
2018-01-12T00:22:33.157Z,21.2
2018-01-12T00:23:01.262Z,21.11
2018-01-12T00:23:29.326Z,21.13
2018-01-12T00:23:57.433Z,21.03
2018-01-12T00:24:25.587Z,21.13
2018-01-12T00:24:53.720Z,21.13
2018-01-12T00:25:21.770Z,21.13
2018-01-12T00:25:49.683Z,20.98
2018-01-12T00:26:17.696Z,21.04
2018-01-12T00:26:45.731Z,21
2018-01-12T00:27:13.764Z,21.03
2018-01-12T00:27:41.800Z,21.04
2018-01-12T00:28:09.950Z,21
2018-01-12T00:28:37.876Z,21.03
2018-01-12T00:29:05.907Z,20.98
2018-01-12T00:29:33.890Z,21.04
2018-01-12T00:30:01.873Z,21.05
2018-01-12T00:30:29.843Z,21.04
2018-01-12T00:30:57.991Z,20.95
2018-01-12T00:31:26.053Z,21.11
2018-01-12T00:31:53.984Z,21.03
2018-01-12T00:32:21.747Z,21.03
2018-01-12T00:32:49.741Z,21.03
2018-01-12T00:33:17.760Z,21.03
2018-01-12T00:33:45.802Z,21.03
2018-01-12T00:34:13.957Z,21.01
2018-01-12T00:34:42.181Z,21.01
2018-01-12T00:35:10.277Z,21.05
2018-01-12T00:35:38.335Z,21.01
2018-01-12T00:36:06.247Z,20.93
2018-01-12T00:36:34.333Z,21.04
2018-01-12T00:37:02.463Z,21.04
2018-01-12T00:37:30.381Z,20.92
2018-01-12T00:37:58.418Z,21.04
2018-01-12T00:38:26.554Z,20.86
2018-01-12T00:38:54.590Z,20.92
2018-01-12T00:39:22.677Z,20.89
2018-01-12T00:39:50.780Z,20.92
2018-01-12T00:40:18.770Z,20.92
2018-01-12T00:40:46.908Z,20.82
2018-01-12T00:41:15.037Z,20.78
2018-01-12T00:41:42.996Z,20.89
2018-01-12T00:42:10.924Z,20.92
2018-01-12T00:42:38.830Z,20.78
2018-01-12T00:43:06.854Z,20.77
2018-01-12T00:43:34.967Z,20.78
2018-01-12T00:44:03.058Z,20.78
2018-01-12T00:44:31.189Z,20.8
2018-01-12T00:44:59.189Z,20.83
2018-01-12T00:45:27.333Z,20.82
2018-01-12T00:45:55.471Z,20.74
2018-01-12T00:46:23.426Z,20.78
2018-01-12T00:46:51.432Z,20.77
2018-01-12T00:47:19.579Z,20.83
2018-01-12T00:47:47.701Z,20.78
2018-01-12T00:48:15.825Z,20.75
2018-01-12T00:48:43.861Z,20.78
2018-01-12T00:49:12.025Z,20.73
2018-01-12T00:49:40.124Z,20.78
2018-01-12T00:50:08.229Z,20.74
2018-01-12T00:50:36.276Z,20.75
2018-01-12T00:51:04.666Z,20.74
2018-01-12T00:51:32.730Z,20.71
2018-01-12T00:52:00.651Z,20.71
2018-01-12T00:52:28.807Z,20.7
2018-01-12T00:52:56.948Z,20.73
2018-01-12T00:53:25.059Z,20.73
2018-01-12T00:53:53.160Z,20.68
2018-01-12T00:54:21.315Z,20.71
2018-01-12T00:54:49.148Z,20.59
2018-01-12T00:55:17.297Z,20.63
2018-01-12T00:55:45.305Z,20.59
2018-01-12T00:56:13.345Z,20.6
2018-01-12T00:56:41.552Z,20.59
2018-01-12T00:57:09.628Z,20.58
2018-01-12T00:57:37.794Z,20.63
2018-01-12T00:58:05.870Z,20.58
2018-01-12T00:58:33.975Z,20.66
2018-01-12T00:59:01.985Z,20.59
2018-01-12T00:59:30.171Z,20.58
2018-01-12T00:59:58.187Z,20.59
2018-01-12T01:00:26.244Z,20.52
2018-01-12T01:00:54.319Z,20.52
2018-01-12T01:01:22.438Z,20.55
2018-01-12T01:01:50.474Z,20.53
2018-01-12T01:02:18.570Z,20.48
2018-01-12T01:02:46.540Z,20.5
2018-01-12T01:03:14.668Z,20.5
2018-01-12T01:03:42.804Z,20.48
2018-01-12T01:04:10.981Z,20.53
2018-01-12T01:04:39.096Z,20.56
2018-01-12T01:05:07.245Z,20.53
2018-01-12T01:05:35.304Z,20.56
2018-01-12T01:06:03.432Z,20.58
2018-01-12T01:06:31.456Z,20.53
2018-01-12T01:06:59.498Z,20.52
2018-01-12T01:07:27.653Z,20.52
2018-01-12T01:07:55.471Z,20.52
2018-01-12T01:08:23.615Z,20.52
2018-01-12T01:08:51.709Z,20.53
2018-01-12T01:09:19.761Z,20.52
2018-01-12T01:09:47.784Z,20.53
2018-01-12T01:10:15.782Z,20.59
2018-01-12T01:10:43.853Z,20.55
2018-01-12T01:11:12.017Z,20.59
2018-01-12T01:11:40.101Z,20.56
2018-01-12T01:12:08.233Z,20.58
2018-01-12T01:12:36.155Z,20.58
2018-01-12T01:13:04.061Z,20.56
2018-01-12T01:13:32.266Z,20.56
2018-01-12T01:14:00.268Z,20.63
2018-01-12T01:14:28.380Z,20.56
2018-01-12T01:14:56.487Z,20.6
2018-01-12T01:15:24.599Z,20.55
2018-01-12T01:15:52.592Z,20.63
2018-01-12T01:16:20.844Z,20.63
2018-01-12T01:16:48.851Z,20.6
2018-01-12T01:17:17.013Z,20.64
2018-01-12T01:17:45.160Z,20.55
2018-01-12T01:18:13.106Z,20.58
2018-01-12T01:18:41.251Z,20.64
2018-01-12T01:19:09.410Z,20.6
2018-01-12T01:19:37.513Z,20.58
2018-01-12T01:20:05.639Z,20.59
2018-01-12T01:20:33.720Z,20.67
2018-01-12T01:21:01.847Z,20.64
2018-01-12T01:21:29.987Z,20.59
2018-01-12T01:21:57.917Z,20.59
2018-01-12T01:22:25.833Z,20.64
2018-01-12T01:22:53.885Z,20.67
2018-01-12T01:23:22.003Z,20.7
2018-01-12T01:23:50.144Z,20.71
2018-01-12T01:24:18.304Z,20.68
2018-01-12T01:24:46.336Z,20.68
2018-01-12T01:25:14.397Z,20.66
2018-01-12T01:25:42.408Z,20.67
2018-01-12T01:26:10.560Z,20.74
2018-01-12T01:26:38.585Z,20.64
2018-01-12T01:27:06.771Z,20.74
2018-01-12T01:27:34.860Z,20.74
2018-01-12T01:28:02.765Z,20.71
2018-01-12T01:28:30.786Z,20.74
2018-01-12T01:28:58.870Z,20.71
2018-01-12T01:29:26.998Z,20.78
2018-01-12T01:29:55.093Z,20.74
2018-01-12T01:30:22.952Z,20.66
2018-01-12T01:30:51.120Z,20.77
2018-01-12T01:31:19.185Z,20.77
2018-01-12T01:31:47.205Z,20.8
2018-01-12T01:32:15.366Z,20.7
2018-01-12T01:32:43.437Z,20.71
2018-01-12T01:33:12.318Z,20.73
2018-01-12T01:33:40.457Z,20.68
2018-01-12T01:34:08.550Z,20.64
2018-01-12T01:34:36.701Z,20.68
2018-01-12T01:35:04.771Z,20.6
2018-01-12T01:35:32.928Z,20.68
2018-01-12T01:36:00.843Z,20.71
2018-01-12T01:36:28.925Z,20.67
2018-01-12T01:36:57.023Z,20.71
2018-01-12T01:37:25.174Z,20.68
2018-01-12T01:37:53.325Z,20.66
2018-01-12T01:38:21.352Z,20.7
2018-01-12T01:38:49.523Z,20.68
2018-01-12T01:39:17.667Z,20.75
2018-01-12T01:39:45.798Z,20.82
2018-01-12T01:40:13.926Z,20.78
2018-01-12T01:40:41.938Z,20.74
2018-01-12T01:41:10.052Z,20.78
2018-01-12T01:41:38.108Z,20.88
2018-01-12T01:42:06.286Z,20.8
2018-01-12T01:42:34.308Z,20.82
2018-01-12T01:43:02.411Z,20.86
2018-01-12T01:43:30.495Z,20.9
2018-01-12T01:43:58.653Z,20.85
2018-01-12T01:44:26.562Z,20.9
2018-01-12T01:44:54.658Z,20.86
2018-01-12T01:45:22.786Z,20.8
2018-01-12T01:45:50.926Z,20.88
2018-01-12T01:46:19.077Z,20.85
2018-01-12T01:46:47.311Z,20.88
2018-01-12T01:47:15.474Z,20.88
2018-01-12T01:47:43.391Z,20.86
2018-01-12T01:48:11.337Z,20.92
2018-01-12T01:48:39.472Z,20.9
2018-01-12T01:49:07.514Z,20.88
2018-01-12T01:49:35.531Z,20.8
2018-01-12T01:50:03.439Z,20.86
2018-01-12T01:50:31.620Z,20.82
2018-01-12T01:50:59.746Z,20.9
2018-01-12T01:51:27.762Z,20.85
2018-01-12T01:51:55.755Z,20.85
2018-01-12T01:52:23.681Z,20.89
2018-01-12T01:52:51.638Z,20.85
2018-01-12T01:53:19.783Z,20.8
2018-01-12T01:53:47.858Z,20.8
2018-01-12T01:54:15.964Z,20.83
2018-01-12T01:54:44.111Z,20.8
2018-01-12T01:55:12.251Z,20.77
2018-01-12T01:55:40.334Z,20.85
2018-01-12T01:56:08.348Z,20.9
2018-01-12T01:56:36.256Z,20.86
2018-01-12T01:57:04.369Z,20.8
2018-01-12T01:57:32.350Z,20.85
2018-01-12T01:58:00.386Z,20.7
2018-01-12T01:58:28.555Z,20.78
2018-01-12T01:58:56.594Z,20.74
2018-01-12T01:59:24.738Z,20.8
2018-01-12T01:59:52.784Z,20.78
2018-01-12T02:00:20.822Z,20.82
2018-01-12T02:00:48.927Z,20.78
2018-01-12T02:01:16.911Z,20.85
2018-01-12T02:01:44.949Z,20.83
2018-01-12T02:02:12.870Z,20.82
2018-01-12T02:02:40.992Z,20.85
2018-01-12T02:03:08.895Z,20.85
2018-01-12T02:03:36.938Z,20.92
2018-01-12T02:04:04.923Z,20.8
2018-01-12T02:04:32.984Z,20.89
2018-01-12T02:05:00.883Z,20.8
2018-01-12T02:05:28.890Z,20.8
2018-01-12T02:05:57.048Z,20.88
2018-01-12T02:06:25.066Z,20.92
2018-01-12T02:06:53.149Z,20.86
2018-01-12T02:07:21.280Z,20.92
2018-01-12T02:07:49.096Z,20.93
2018-01-12T02:08:17.113Z,20.9
2018-01-12T02:08:45.097Z,20.92
2018-01-12T02:09:13.156Z,21.08
2018-01-12T02:09:41.296Z,21.05
2018-01-12T02:10:09.439Z,20.96
2018-01-12T02:10:37.533Z,20.93
2018-01-12T02:11:05.698Z,20.96
2018-01-12T02:11:33.721Z,21.07
2018-01-12T02:12:01.651Z,21.01
2018-01-12T02:12:29.756Z,21.01
2018-01-12T02:12:57.905Z,21.01
2018-01-12T02:13:25.880Z,21.01
2018-01-12T02:13:53.949Z,21.04
2018-01-12T02:14:21.977Z,21.08
2018-01-12T02:14:49.983Z,21.08
2018-01-12T02:15:18.101Z,21.05
2018-01-12T02:15:46.138Z,21.08
2018-01-12T02:16:14.225Z,21.14
2018-01-12T02:16:42.505Z,21.08
2018-01-12T02:17:10.554Z,21.19
2018-01-12T02:17:38.599Z,21.14
2018-01-12T02:18:06.713Z,21.2
2018-01-12T02:18:34.762Z,21.2
2018-01-12T02:19:02.685Z,21.13
2018-01-12T02:19:30.701Z,21.13
2018-01-12T02:19:58.740Z,21.17
2018-01-12T02:20:26.818Z,21.14
2018-01-12T02:20:54.936Z,21.1
2018-01-12T02:21:22.957Z,21.08
2018-01-12T02:21:50.982Z,21.13
2018-01-12T02:22:18.959Z,21.1
2018-01-12T02:22:47.092Z,21.08
2018-01-12T02:23:15.042Z,21.01
2018-01-12T02:23:43.200Z,21.05
2018-01-12T02:24:11.329Z,21.01
2018-01-12T02:24:39.431Z,21
2018-01-12T02:25:07.595Z,21.04
2018-01-12T02:25:35.600Z,20.98
2018-01-12T02:26:03.491Z,21
2018-01-12T02:26:31.497Z,21
2018-01-12T02:26:59.389Z,21.1
2018-01-12T02:27:27.421Z,21.04
2018-01-12T02:27:55.568Z,21.03
2018-01-12T02:28:23.678Z,21.07
2018-01-12T02:28:51.837Z,21.03
2018-01-12T02:29:19.759Z,21.04
2018-01-12T02:29:47.883Z,20.9
2018-01-12T02:30:16.005Z,21
2018-01-12T02:30:44.197Z,21.05
2018-01-12T02:31:12.335Z,21.01
2018-01-12T02:31:40.378Z,21.04
2018-01-12T02:32:08.376Z,21.01
2018-01-12T02:32:36.518Z,21.01
2018-01-12T02:33:04.696Z,21.05
2018-01-12T02:33:32.616Z,21.04
2018-01-12T02:34:00.765Z,21.1
2018-01-12T02:34:28.761Z,21.03
2018-01-12T02:34:56.910Z,21.05
2018-01-12T02:35:25.050Z,21.03
2018-01-12T02:35:53.085Z,21.1
2018-01-12T02:36:21.126Z,21.1
2018-01-12T02:36:49.122Z,21.11
2018-01-12T02:37:17.128Z,21.19
2018-01-12T02:37:45.237Z,21.13
2018-01-12T02:38:13.328Z,21.17
2018-01-12T02:38:41.469Z,21.15
2018-01-12T02:39:09.473Z,21.14
2018-01-12T02:39:37.647Z,21.17
2018-01-12T02:40:05.775Z,21.14
2018-01-12T02:40:33.824Z,21.28
2018-01-12T02:41:01.999Z,21.26
2018-01-12T02:41:30.118Z,21.29
2018-01-12T02:41:58.115Z,21.3
2018-01-12T02:42:26.132Z,21.33
2018-01-12T02:42:54.181Z,21.33
2018-01-12T02:43:22.289Z,21.29
2018-01-12T02:43:50.465Z,21.37
2018-01-12T02:44:18.475Z,21.3
2018-01-12T02:44:46.584Z,21.35
2018-01-12T02:45:14.610Z,21.37
2018-01-12T02:45:42.736Z,21.4
2018-01-12T02:46:10.739Z,21.38
2018-01-12T02:46:38.756Z,21.43
2018-01-12T02:47:06.880Z,21.41
2018-01-12T02:47:35.020Z,21.43
2018-01-12T02:48:03.011Z,21.48
2018-01-12T02:48:30.986Z,21.45
2018-01-12T02:48:59.148Z,21.47
2018-01-12T02:49:27.332Z,21.53
2018-01-12T02:49:55.360Z,21.6
2018-01-12T02:50:23.506Z,21.53
2018-01-12T02:50:51.557Z,21.53
2018-01-12T02:51:19.703Z,21.59
2018-01-12T02:51:47.683Z,21.68
2018-01-12T02:52:15.662Z,21.63
2018-01-12T02:52:43.814Z,21.65
2018-01-12T02:53:11.851Z,21.63
2018-01-12T02:53:39.915Z,21.65
2018-01-12T02:54:07.925Z,21.65
2018-01-12T02:54:35.933Z,21.68
2018-01-12T02:55:04.051Z,21.69
2018-01-12T02:55:32.126Z,21.75
2018-01-12T02:56:00.279Z,21.78
2018-01-12T02:56:28.375Z,21.75
2018-01-12T02:56:56.475Z,21.77
2018-01-12T02:57:24.614Z,21.8
2018-01-12T02:57:52.626Z,21.85
2018-01-12T02:58:20.701Z,21.84
2018-01-12T02:58:48.782Z,21.81
2018-01-12T02:59:16.808Z,21.81
2018-01-12T02:59:44.626Z,21.88
2018-01-12T03:00:12.786Z,21.83
2018-01-12T03:00:40.751Z,21.85
2018-01-12T03:01:08.815Z,21.78
2018-01-12T03:01:36.837Z,21.85
2018-01-12T03:02:04.958Z,21.81
2018-01-12T03:02:33.131Z,21.84
2018-01-12T03:03:01.039Z,21.8
2018-01-12T03:03:29.057Z,21.85
2018-01-12T03:03:57.189Z,21.89
2018-01-12T03:04:25.306Z,21.88
2018-01-12T03:04:53.494Z,21.84
2018-01-12T03:05:21.468Z,21.88
2018-01-12T03:05:49.490Z,21.92
2018-01-12T03:06:17.503Z,21.88
2018-01-12T03:06:45.640Z,21.89
2018-01-12T03:07:13.589Z,21.94
2018-01-12T03:07:41.476Z,21.88
2018-01-12T03:08:09.620Z,21.88
2018-01-12T03:08:37.679Z,21.92
2018-01-12T03:09:05.784Z,21.84
2018-01-12T03:09:33.824Z,21.88
2018-01-12T03:10:01.805Z,21.89
2018-01-12T03:10:29.991Z,21.85
2018-01-12T03:10:58.113Z,21.83
2018-01-12T03:11:26.240Z,21.85
2018-01-12T03:11:54.300Z,21.77
2018-01-12T03:12:22.480Z,21.8
2018-01-12T03:12:50.592Z,21.84
2018-01-12T03:13:18.656Z,21.8
2018-01-12T03:13:46.745Z,21.78
2018-01-12T03:14:14.865Z,21.75
2018-01-12T03:14:43.025Z,21.77
2018-01-12T03:15:11.168Z,21.69
2018-01-12T03:15:39.306Z,21.72
2018-01-12T03:16:07.286Z,21.69
2018-01-12T03:16:35.442Z,21.77
2018-01-12T03:17:03.565Z,21.68
2018-01-12T03:17:31.848Z,21.65
2018-01-12T03:17:59.895Z,21.63
2018-01-12T03:18:28.042Z,21.74
2018-01-12T03:18:56.125Z,21.69
2018-01-12T03:19:24.265Z,21.63
2018-01-12T03:19:52.198Z,21.63
2018-01-12T03:20:20.122Z,21.7
2018-01-12T03:20:48.202Z,21.66
2018-01-12T03:21:16.298Z,21.65
2018-01-12T03:21:44.323Z,21.68
2018-01-12T03:22:12.478Z,21.69
2018-01-12T03:22:40.599Z,21.6
2018-01-12T03:23:08.809Z,21.54
2018-01-12T03:23:36.729Z,21.59
2018-01-12T03:24:04.760Z,21.54
2018-01-12T03:24:32.814Z,21.5
2018-01-12T03:25:00.857Z,21.43
2018-01-12T03:25:29.024Z,21.4
2018-01-12T03:25:57.018Z,21.4
2018-01-12T03:26:25.178Z,21.33
2018-01-12T03:26:53.147Z,21.32
2018-01-12T03:27:21.229Z,21.29
2018-01-12T03:27:49.222Z,21.26
2018-01-12T03:28:17.360Z,21.22
2018-01-12T03:28:45.502Z,21.22
2018-01-12T03:29:13.700Z,21.17
2018-01-12T03:29:41.744Z,21.15
2018-01-12T03:30:09.792Z,21.17
2018-01-12T03:30:37.912Z,21.14
2018-01-12T03:31:06.048Z,21.17
2018-01-12T03:31:34.136Z,21.17
2018-01-12T03:32:01.972Z,21.14
2018-01-12T03:32:30.105Z,21.2
2018-01-12T03:32:58.209Z,21.2
2018-01-12T03:33:26.257Z,21.19
2018-01-12T03:33:54.271Z,21.23
2018-01-12T03:34:22.215Z,21.28
2018-01-12T03:34:50.388Z,21.3
2018-01-12T03:35:18.580Z,21.32
2018-01-12T03:35:46.500Z,21.3
2018-01-12T03:36:14.606Z,21.33
2018-01-12T03:36:42.653Z,21.23
2018-01-12T03:37:10.665Z,21.32
2018-01-12T03:37:38.717Z,21.29
2018-01-12T03:38:06.745Z,21.26
2018-01-12T03:38:34.923Z,21.22
2018-01-12T03:39:02.979Z,21.14
2018-01-12T03:39:31.018Z,21.26
2018-01-12T03:39:59.188Z,21.17
2018-01-12T03:40:27.309Z,21.22
2018-01-12T03:40:55.480Z,21.15
2018-01-12T03:41:23.631Z,21.11
2018-01-12T03:41:51.752Z,21.1
2018-01-12T03:42:19.827Z,21.1
2018-01-12T03:42:48.033Z,21
2018-01-12T03:43:16.057Z,21
2018-01-12T03:43:44.220Z,21.04
2018-01-12T03:44:12.367Z,21.04
2018-01-12T03:44:40.483Z,21.04
2018-01-12T03:45:08.449Z,21.07
2018-01-12T03:45:36.504Z,21.05
2018-01-12T03:46:04.618Z,21.07
2018-01-12T03:46:32.672Z,21
2018-01-12T03:47:00.780Z,20.89
2018-01-12T03:47:28.847Z,20.96
2018-01-12T03:47:56.980Z,20.86
2018-01-12T03:48:25.035Z,21
2018-01-12T03:48:53.152Z,20.92
2018-01-12T03:49:21.008Z,20.85
2018-01-12T03:49:49.074Z,20.95
2018-01-12T03:50:17.117Z,20.93
2018-01-12T03:50:45.123Z,20.82
2018-01-12T03:51:13.102Z,20.92
2018-01-12T03:51:41.285Z,20.8
2018-01-12T03:52:09.432Z,20.9
2018-01-12T03:52:37.475Z,20.85
2018-01-12T03:53:05.601Z,20.82
2018-01-12T03:53:33.719Z,20.86
2018-01-12T03:54:01.751Z,20.75
2018-01-12T03:54:29.747Z,20.86
2018-01-12T03:54:57.822Z,20.8
2018-01-12T03:55:25.876Z,20.86
2018-01-12T03:55:53.904Z,20.8
2018-01-12T03:56:21.891Z,20.74
2018-01-12T03:56:49.912Z,20.89
2018-01-12T03:57:17.828Z,20.85
2018-01-12T03:57:45.887Z,20.82
2018-01-12T03:58:13.944Z,20.75
2018-01-12T03:58:42.044Z,20.77
2018-01-12T03:59:10.222Z,20.74
2018-01-12T03:59:38.333Z,20.74
2018-01-12T04:00:06.484Z,20.71
2018-01-12T04:00:34.610Z,20.74
2018-01-12T04:01:02.774Z,20.75
2018-01-12T04:01:30.869Z,20.7
2018-01-12T04:01:58.918Z,20.67
2018-01-12T04:02:27.040Z,20.74
2018-01-12T04:02:55.189Z,20.59
2018-01-12T04:03:23.192Z,20.71
2018-01-12T04:03:51.337Z,20.67
2018-01-12T04:04:19.393Z,20.66
2018-01-12T04:04:47.465Z,20.68
2018-01-12T04:05:15.441Z,20.73
2018-01-12T04:05:43.562Z,20.75
2018-01-12T04:06:12.451Z,20.73
2018-01-12T04:06:40.495Z,20.74
2018-01-12T04:07:08.535Z,20.71
2018-01-12T04:07:36.421Z,20.71
2018-01-12T04:08:04.448Z,20.77
2018-01-12T04:08:32.591Z,20.75
2018-01-12T04:09:00.718Z,20.82
2018-01-12T04:09:28.887Z,20.83
2018-01-12T04:09:56.902Z,20.75
2018-01-12T04:10:25.010Z,20.86
2018-01-12T04:10:53.198Z,20.83
2018-01-12T04:11:21.310Z,20.78
2018-01-12T04:11:49.453Z,20.77
2018-01-12T04:12:17.589Z,20.86
2018-01-12T04:12:45.736Z,20.86
2018-01-12T04:13:13.896Z,20.88
2018-01-12T04:13:41.965Z,20.88
2018-01-12T04:14:09.847Z,20.86
2018-01-12T04:14:37.889Z,20.85
2018-01-12T04:15:06.040Z,20.8
2018-01-12T04:15:34.166Z,20.83
2018-01-12T04:16:02.295Z,20.74
2018-01-12T04:16:30.429Z,20.85
2018-01-12T04:16:58.300Z,20.86
2018-01-12T04:17:26.341Z,20.82
2018-01-12T04:17:54.400Z,20.85
2018-01-12T04:18:22.563Z,20.75
2018-01-12T04:18:50.488Z,20.78
2018-01-12T04:19:18.600Z,20.7
2018-01-12T04:19:46.732Z,20.77
2018-01-12T04:20:14.763Z,20.71
2018-01-12T04:20:42.708Z,20.73
2018-01-12T04:21:10.873Z,20.77
2018-01-12T04:21:38.751Z,20.74
2018-01-12T04:22:06.919Z,20.73
2018-01-12T04:22:35.063Z,20.66
2018-01-12T04:23:03.047Z,20.71
2018-01-12T04:23:31.162Z,20.74
2018-01-12T04:23:59.312Z,20.78
2018-01-12T04:24:27.300Z,20.74
2018-01-12T04:24:55.482Z,20.71
2018-01-12T04:25:23.407Z,20.77
2018-01-12T04:25:51.538Z,20.75
2018-01-12T04:26:19.648Z,20.82
2018-01-12T04:26:47.647Z,20.75
2018-01-12T04:27:15.737Z,20.71
2018-01-12T04:27:43.745Z,20.78
2018-01-12T04:28:11.745Z,20.82
2018-01-12T04:28:39.835Z,20.88
2018-01-12T04:29:07.845Z,20.82
2018-01-12T04:29:35.890Z,20.8
2018-01-12T04:30:03.989Z,20.83
2018-01-12T04:30:32.039Z,20.78
2018-01-12T04:31:00.154Z,20.78
2018-01-12T04:31:28.232Z,20.85
2018-01-12T04:31:56.378Z,20.75
2018-01-12T04:32:24.512Z,20.83
2018-01-12T04:32:52.546Z,20.75
2018-01-12T04:33:20.659Z,20.82
2018-01-12T04:33:48.609Z,20.75
2018-01-12T04:34:16.747Z,20.82
2018-01-12T04:34:44.696Z,20.85
2018-01-12T04:35:12.805Z,20.82
2018-01-12T04:35:40.808Z,20.77
2018-01-12T04:36:08.751Z,20.85
2018-01-12T04:36:36.782Z,20.77
2018-01-12T04:37:04.877Z,20.83
2018-01-12T04:37:32.896Z,20.75
2018-01-12T04:38:00.717Z,20.83
2018-01-12T04:38:28.791Z,20.75
2018-01-12T04:38:56.922Z,20.75
2018-01-12T04:39:25.049Z,20.74
2018-01-12T04:39:53.068Z,20.78
2018-01-12T04:40:21.184Z,20.73
2018-01-12T04:40:49.281Z,20.74
2018-01-12T04:41:17.436Z,20.74
2018-01-12T04:41:45.567Z,20.74
2018-01-12T04:42:13.594Z,20.8
2018-01-12T04:42:41.700Z,20.74
2018-01-12T04:43:09.833Z,20.78
2018-01-12T04:43:37.842Z,20.74
2018-01-12T04:44:05.986Z,20.82
2018-01-12T04:44:34.124Z,20.78
2018-01-12T04:45:02.239Z,20.78
2018-01-12T04:45:30.328Z,20.68
2018-01-12T04:45:58.433Z,20.78
2018-01-12T04:46:26.568Z,20.7
2018-01-12T04:46:54.573Z,20.8
2018-01-12T04:47:22.594Z,20.75
2018-01-12T04:47:50.474Z,20.78
2018-01-12T04:48:18.635Z,20.77
2018-01-12T04:48:46.755Z,20.74
2018-01-12T04:49:14.918Z,20.77
2018-01-12T04:49:43.063Z,20.78
2018-01-12T04:50:11.101Z,20.82
2018-01-12T04:50:39.168Z,20.74
2018-01-12T04:51:07.332Z,20.85
2018-01-12T04:51:35.470Z,20.86
2018-01-12T04:52:03.575Z,20.82
2018-01-12T04:52:31.572Z,20.85
2018-01-12T04:52:59.702Z,20.85
2018-01-12T04:53:27.711Z,20.8
2018-01-12T04:53:55.883Z,20.83
2018-01-12T04:54:23.980Z,20.77
2018-01-12T04:54:52.107Z,20.77
2018-01-12T04:55:20.139Z,20.78
2018-01-12T04:55:48.148Z,20.77
2018-01-12T04:56:16.303Z,20.8
2018-01-12T04:56:44.313Z,20.77
2018-01-12T04:57:12.467Z,20.74
2018-01-12T04:57:40.509Z,20.77
2018-01-12T04:58:08.593Z,20.7
2018-01-12T04:58:36.713Z,20.75
2018-01-12T04:59:04.824Z,20.7
2018-01-12T04:59:32.859Z,20.78
2018-01-12T05:00:00.809Z,20.66
2018-01-12T05:00:28.839Z,20.73
2018-01-12T05:00:56.980Z,20.67
2018-01-12T05:01:25.141Z,20.71
2018-01-12T05:01:53.213Z,20.71
2018-01-12T05:02:21.278Z,20.7
2018-01-12T05:02:49.298Z,20.73
2018-01-12T05:03:17.426Z,20.68
2018-01-12T05:03:45.435Z,20.7
2018-01-12T05:04:13.598Z,20.71
2018-01-12T05:04:41.608Z,20.71
2018-01-12T05:05:09.658Z,20.73
2018-01-12T05:05:37.801Z,20.75
2018-01-12T05:06:05.853Z,20.68
2018-01-12T05:06:33.895Z,20.71
2018-01-12T05:07:01.933Z,20.71
2018-01-12T05:07:29.996Z,20.77
2018-01-12T05:07:58.161Z,20.73
2018-01-12T05:08:26.242Z,20.75
2018-01-12T05:08:54.335Z,20.77
2018-01-12T05:09:22.187Z,20.89
2018-01-12T05:09:50.291Z,20.86
2018-01-12T05:10:18.324Z,20.86
2018-01-12T05:10:46.432Z,20.88
2018-01-12T05:11:14.468Z,20.93
2018-01-12T05:11:42.586Z,21.03
2018-01-12T05:12:10.735Z,20.96
2018-01-12T05:12:38.699Z,20.93
2018-01-12T05:13:06.844Z,20.95
2018-01-12T05:13:34.961Z,21.04
2018-01-12T05:14:03.106Z,20.95
2018-01-12T05:14:31.128Z,20.9
2018-01-12T05:14:59.214Z,20.93
2018-01-12T05:15:27.275Z,20.9
2018-01-12T05:15:55.400Z,21
2018-01-12T05:16:23.531Z,20.9
2018-01-12T05:16:51.625Z,21
2018-01-12T05:17:19.823Z,21.01
2018-01-12T05:17:47.914Z,21.05
2018-01-12T05:18:16.094Z,21
2018-01-12T05:18:44.048Z,20.98
2018-01-12T05:19:12.184Z,20.98
2018-01-12T05:19:40.131Z,21.04
2018-01-12T05:20:08.150Z,21.03
2018-01-12T05:20:36.082Z,21.07
2018-01-12T05:21:04.137Z,21.05
2018-01-12T05:21:32.232Z,20.96
2018-01-12T05:22:00.371Z,21.17
2018-01-12T05:22:28.370Z,21.14
2018-01-12T05:22:56.453Z,21.07
2018-01-12T05:23:24.585Z,21.1
2018-01-12T05:23:52.585Z,21.17
2018-01-12T05:24:20.666Z,21.19
2018-01-12T05:24:48.599Z,21.15
2018-01-12T05:25:16.540Z,21.17
2018-01-12T05:25:44.577Z,21.19
2018-01-12T05:26:12.610Z,21.2
2018-01-12T05:26:40.641Z,21.14
2018-01-12T05:27:08.692Z,21.26
2018-01-12T05:27:36.737Z,21.23
2018-01-12T05:28:04.818Z,21.17
2018-01-12T05:28:32.852Z,21.17
2018-01-12T05:29:00.980Z,21.17
2018-01-12T05:29:29.082Z,21.19
2018-01-12T05:29:57.094Z,21.17
2018-01-12T05:30:25.156Z,21.17
2018-01-12T05:30:53.244Z,21.13
2018-01-12T05:31:21.204Z,21.1
2018-01-12T05:31:49.311Z,21.05
2018-01-12T05:32:17.259Z,21.04
2018-01-12T05:32:45.396Z,21.01
2018-01-12T05:33:13.548Z,21.08
2018-01-12T05:33:41.552Z,20.9
2018-01-12T05:34:09.460Z,20.98
2018-01-12T05:34:37.614Z,20.88
2018-01-12T05:35:05.674Z,20.88
2018-01-12T05:35:33.777Z,20.93
2018-01-12T05:36:01.897Z,20.89
2018-01-12T05:36:29.906Z,20.86
2018-01-12T05:36:58.083Z,20.95
2018-01-12T05:37:26.113Z,21
2018-01-12T05:37:54.230Z,21.03
2018-01-12T05:38:22.394Z,20.89
2018-01-12T05:38:50.531Z,21
2018-01-12T05:39:18.718Z,21.03
2018-01-12T05:39:46.776Z,21.01
2018-01-12T05:40:14.918Z,20.95
2018-01-12T05:40:42.958Z,21.03
2018-01-12T05:41:11.047Z,20.95
2018-01-12T05:41:39.205Z,20.89
2018-01-12T05:42:07.300Z,21.05
2018-01-12T05:42:35.322Z,21.01
2018-01-12T05:43:03.398Z,21.08
2018-01-12T05:43:31.517Z,21
2018-01-12T05:43:59.674Z,20.89
2018-01-12T05:44:27.815Z,21.03
2018-01-12T05:44:55.949Z,21.01
2018-01-12T05:45:24.102Z,21.07
2018-01-12T05:45:52.210Z,21.05
2018-01-12T05:46:20.363Z,21.07
2018-01-12T05:46:48.517Z,21.01
2018-01-12T05:47:16.519Z,21.03
2018-01-12T05:47:44.654Z,20.98
2018-01-12T05:48:12.576Z,21.05
2018-01-12T05:48:40.594Z,21.03
2018-01-12T05:49:08.729Z,21.1
2018-01-12T05:49:36.744Z,21.04
2018-01-12T05:50:04.692Z,21.01
2018-01-12T05:50:32.682Z,21.08
2018-01-12T05:51:00.809Z,21.14
2018-01-12T05:51:28.788Z,21.13
2018-01-12T05:51:56.964Z,21.1
2018-01-12T05:52:25.106Z,21.14
2018-01-12T05:52:53.020Z,21.17
2018-01-12T05:53:21.171Z,21.1
2018-01-12T05:53:49.178Z,21.11
2018-01-12T05:54:17.122Z,21.15
2018-01-12T05:54:45.178Z,21.15
2018-01-12T05:55:13.316Z,21.22
2018-01-12T05:55:41.468Z,21.15
2018-01-12T05:56:09.424Z,21.17
2018-01-12T05:56:37.554Z,21.26
2018-01-12T05:57:05.731Z,21.17
2018-01-12T05:57:33.879Z,21.22
2018-01-12T05:58:01.964Z,21.19
2018-01-12T05:58:30.023Z,21.23
2018-01-12T05:58:57.991Z,21.19
2018-01-12T05:59:26.142Z,21.28
2018-01-12T05:59:54.216Z,21.17
2018-01-12T06:00:22.305Z,21.22
2018-01-12T06:00:50.462Z,21.2
2018-01-12T06:01:18.631Z,21.22
2018-01-12T06:01:46.592Z,21.15
2018-01-12T06:02:14.598Z,21.15
2018-01-12T06:02:42.624Z,21.11
2018-01-12T06:03:10.615Z,21.08
2018-01-12T06:03:38.563Z,21.11